sensor_id;sensor_type;location;lat;lon;timestamp;P1;durP1;ratioP1;P2;durP2;ratioP2
16839;SDS011;8536;52.150;11.572;2022-09-09T00:00:23;4.00;;;3.60;;
16839;SDS011;8536;52.150;11.572;2022-09-09T00:02:55;3.80;;;3.42;;
16839;SDS011;8536;52.150;11.572;2022-09-09T00:08:15;3.50;;;3.20;;
16839;SDS011;8536;52.150;11.572;2022-09-09T00:10:45;3.25;;;2.97;;
16839;SDS011;8536;52.150;11.572;2022-09-09T00:13:22;3.75;;;3.20;;
16839;SDS011;8536;52.150;11.572;2022-09-09T00:16:03;3.53;;;3.22;;
16839;SDS011;8536;52.150;11.572;2022-09-09T00:19:01;3.33;;;3.03;;
16839;SDS011;8536;52.150;11.572;2022-09-09T00:24:45;3.70;;;2.83;;
16839;SDS011;8536;52.150;11.572;2022-09-09T00:27:19;3.28;;;2.97;;
16839;SDS011;8536;52.150;11.572;2022-09-09T00:32:29;4.10;;;3.03;;
16839;SDS011;8536;52.150;11.572;2022-09-09T00:34:59;2.72;;;2.53;;
16839;SDS011;8536;52.150;11.572;2022-09-09T00:37:29;3.20;;;2.90;;
16839;SDS011;8536;52.150;11.572;2022-09-09T00:39:59;2.72;;;2.53;;
16839;SDS011;8536;52.150;11.572;2022-09-09T00:42:30;3.45;;;2.42;;
16839;SDS011;8536;52.150;11.572;2022-09-09T00:47:56;2.42;;;2.22;;
16839;SDS011;8536;52.150;11.572;2022-09-09T00:53:05;2.35;;;2.10;;
16839;SDS011;8536;52.150;11.572;2022-09-09T00:56:04;3.15;;;2.35;;
16839;SDS011;8536;52.150;11.572;2022-09-09T00:58:42;3.47;;;2.05;;
16839;SDS011;8536;52.150;11.572;2022-09-09T01:01:10;3.17;;;2.40;;
16839;SDS011;8536;52.150;11.572;2022-09-09T01:03:49;3.47;;;2.00;;
16839;SDS011;8536;52.150;11.572;2022-09-09T01:11:43;4.35;;;2.15;;
16839;SDS011;8536;52.150;11.572;2022-09-09T01:14:27;1.95;;;1.85;;
16839;SDS011;8536;52.150;11.572;2022-09-09T01:16:58;2.95;;;2.03;;
16839;SDS011;8536;52.150;11.572;2022-09-09T01:27:46;2.28;;;1.40;;
16839;SDS011;8536;52.150;11.572;2022-09-09T01:30:15;1.50;;;1.40;;
16839;SDS011;8536;52.150;11.572;2022-09-09T01:32:43;3.83;;;1.98;;
16839;SDS011;8536;52.150;11.572;2022-09-09T01:35:26;1.95;;;1.83;;
16839;SDS011;8536;52.150;11.572;2022-09-09T01:37:56;1.38;;;1.27;;
16839;SDS011;8536;52.150;11.572;2022-09-09T01:40:23;2.60;;;1.52;;
16839;SDS011;8536;52.150;11.572;2022-09-09T01:42:50;1.80;;;1.70;;
16839;SDS011;8536;52.150;11.572;2022-09-09T01:45:17;2.80;;;1.77;;
16839;SDS011;8536;52.150;11.572;2022-09-09T01:47:44;2.42;;;1.38;;
16839;SDS011;8536;52.150;11.572;2022-09-09T01:50:12;2.33;;;1.40;;
16839;SDS011;8536;52.150;11.572;2022-09-09T01:52:42;2.88;;;1.75;;
16839;SDS011;8536;52.150;11.572;2022-09-09T01:55:10;1.40;;;1.30;;
16839;SDS011;8536;52.150;11.572;2022-09-09T02:01:06;1.63;;;1.30;;
16839;SDS011;8536;52.150;11.572;2022-09-09T02:03:39;1.77;;;1.23;;
16839;SDS011;8536;52.150;11.572;2022-09-09T02:06:52;1.60;;;1.40;;
16839;SDS011;8536;52.150;11.572;2022-09-09T02:09:05;1.38;;;1.20;;
16839;SDS011;8536;52.150;11.572;2022-09-09T02:11:32;1.75;;;1.35;;
16839;SDS011;8536;52.150;11.572;2022-09-09T02:14:01;1.27;;;1.17;;
16839;SDS011;8536;52.150;11.572;2022-09-09T02:16:35;0.95;;;0.95;;
16839;SDS011;8536;52.150;11.572;2022-09-09T02:19:11;1.85;;;1.00;;
16839;SDS011;8536;52.150;11.572;2022-09-09T02:21:41;2.03;;;1.00;;
16839;SDS011;8536;52.150;11.572;2022-09-09T02:24:08;0.88;;;0.88;;
16839;SDS011;8536;52.150;11.572;2022-09-09T02:26:37;0.90;;;0.80;;
16839;SDS011;8536;52.150;11.572;2022-09-09T02:29:08;3.08;;;1.17;;
16839;SDS011;8536;52.150;11.572;2022-09-09T02:31:41;0.95;;;0.90;;
16839;SDS011;8536;52.150;11.572;2022-09-09T02:34:08;1.77;;;1.10;;
16839;SDS011;8536;52.150;11.572;2022-09-09T02:36:36;1.88;;;1.20;;
16839;SDS011;8536;52.150;11.572;2022-09-09T02:39:06;1.52;;;1.13;;
16839;SDS011;8536;52.150;11.572;2022-09-09T02:41:35;4.78;;;0.90;;
16839;SDS011;8536;52.150;11.572;2022-09-09T02:44:10;1.25;;;1.00;;
16839;SDS011;8536;52.150;11.572;2022-09-09T02:49:39;1.40;;;0.80;;
16839;SDS011;8536;52.150;11.572;2022-09-09T02:52:18;1.55;;;0.90;;
16839;SDS011;8536;52.150;11.572;2022-09-09T02:54:46;1.48;;;0.90;;
16839;SDS011;8536;52.150;11.572;2022-09-09T02:57:20;0.90;;;0.73;;
16839;SDS011;8536;52.150;11.572;2022-09-09T02:59:49;2.38;;;1.15;;
16839;SDS011;8536;52.150;11.572;2022-09-09T03:02:16;0.88;;;0.88;;
16839;SDS011;8536;52.150;11.572;2022-09-09T03:04:42;1.58;;;0.80;;
16839;SDS011;8536;52.150;11.572;2022-09-09T03:07:11;2.92;;;1.00;;
16839;SDS011;8536;52.150;11.572;2022-09-09T03:09:38;1.10;;;0.80;;
16839;SDS011;8536;52.150;11.572;2022-09-09T03:12:04;1.02;;;0.70;;
16839;SDS011;8536;52.150;11.572;2022-09-09T03:14:31;1.95;;;1.23;;
16839;SDS011;8536;52.150;11.572;2022-09-09T03:16:57;1.23;;;0.95;;
16839;SDS011;8536;52.150;11.572;2022-09-09T03:19:26;1.73;;;0.93;;
16839;SDS011;8536;52.150;11.572;2022-09-09T03:21:53;2.50;;;1.05;;
16839;SDS011;8536;52.150;11.572;2022-09-09T03:24:20;1.95;;;1.20;;
16839;SDS011;8536;52.150;11.572;2022-09-09T03:26:47;1.75;;;0.80;;
16839;SDS011;8536;52.150;11.572;2022-09-09T03:29:14;1.08;;;0.65;;
16839;SDS011;8536;52.150;11.572;2022-09-09T03:31:41;1.98;;;1.10;;
16839;SDS011;8536;52.150;11.572;2022-09-09T03:34:09;1.95;;;0.98;;
16839;SDS011;8536;52.150;11.572;2022-09-09T03:36:35;1.20;;;1.08;;
16839;SDS011;8536;52.150;11.572;2022-09-09T03:39:02;1.50;;;1.10;;
16839;SDS011;8536;52.150;11.572;2022-09-09T03:41:29;1.60;;;1.30;;
16839;SDS011;8536;52.150;11.572;2022-09-09T03:43:56;2.90;;;1.30;;
16839;SDS011;8536;52.150;11.572;2022-09-09T03:46:23;1.50;;;1.38;;
16839;SDS011;8536;52.150;11.572;2022-09-09T03:48:50;1.77;;;1.23;;
16839;SDS011;8536;52.150;11.572;2022-09-09T03:51:18;2.50;;;0.90;;
16839;SDS011;8536;52.150;11.572;2022-09-09T03:53:45;2.25;;;1.10;;
16839;SDS011;8536;52.150;11.572;2022-09-09T03:56:11;1.23;;;1.08;;
16839;SDS011;8536;52.150;11.572;2022-09-09T03:58:38;1.55;;;1.20;;
16839;SDS011;8536;52.150;11.572;2022-09-09T04:01:08;2.35;;;1.20;;
16839;SDS011;8536;52.150;11.572;2022-09-09T04:03:36;2.28;;;1.30;;
16839;SDS011;8536;52.150;11.572;2022-09-09T04:06:03;2.30;;;1.25;;
16839;SDS011;8536;52.150;11.572;2022-09-09T04:08:30;1.85;;;1.42;;
16839;SDS011;8536;52.150;11.572;2022-09-09T04:10:57;2.35;;;1.30;;
16839;SDS011;8536;52.150;11.572;2022-09-09T04:13:25;1.75;;;1.25;;
16839;SDS011;8536;52.150;11.572;2022-09-09T04:15:53;4.68;;;1.48;;
16839;SDS011;8536;52.150;11.572;2022-09-09T04:18:20;2.35;;;1.30;;
16839;SDS011;8536;52.150;11.572;2022-09-09T04:20:47;2.30;;;1.35;;
16839;SDS011;8536;52.150;11.572;2022-09-09T04:23:14;2.03;;;1.20;;
16839;SDS011;8536;52.150;11.572;2022-09-09T04:25:45;1.65;;;1.20;;
16839;SDS011;8536;52.150;11.572;2022-09-09T04:28:13;1.60;;;1.17;;
16839;SDS011;8536;52.150;11.572;2022-09-09T04:30:40;1.70;;;1.48;;
16839;SDS011;8536;52.150;11.572;2022-09-09T04:33:07;1.73;;;1.25;;
16839;SDS011;8536;52.150;11.572;2022-09-09T04:35:34;2.63;;;1.55;;
16839;SDS011;8536;52.150;11.572;2022-09-09T04:38:01;3.50;;;1.35;;
16839;SDS011;8536;52.150;11.572;2022-09-09T04:40:29;2.88;;;1.30;;
16839;SDS011;8536;52.150;11.572;2022-09-09T04:43:02;2.70;;;1.67;;
16839;SDS011;8536;52.150;11.572;2022-09-09T04:45:31;2.55;;;1.60;;
16839;SDS011;8536;52.150;11.572;2022-09-09T04:47:59;2.00;;;1.35;;
16839;SDS011;8536;52.150;11.572;2022-09-09T04:50:26;1.67;;;1.35;;
16839;SDS011;8536;52.150;11.572;2022-09-09T04:52:52;2.40;;;1.30;;
16839;SDS011;8536;52.150;11.572;2022-09-09T04:55:19;2.75;;;1.20;;
16839;SDS011;8536;52.150;11.572;2022-09-09T04:57:46;2.30;;;1.30;;
16839;SDS011;8536;52.150;11.572;2022-09-09T05:00:12;3.42;;;1.55;;
16839;SDS011;8536;52.150;11.572;2022-09-09T05:02:39;3.28;;;1.65;;
16839;SDS011;8536;52.150;11.572;2022-09-09T05:05:06;2.55;;;1.60;;
16839;SDS011;8536;52.150;11.572;2022-09-09T05:07:32;1.88;;;1.20;;
16839;SDS011;8536;52.150;11.572;2022-09-09T05:09:59;2.20;;;1.50;;
16839;SDS011;8536;52.150;11.572;2022-09-09T05:12:25;2.40;;;1.20;;
16839;SDS011;8536;52.150;11.572;2022-09-09T05:14:52;2.47;;;1.25;;
16839;SDS011;8536;52.150;11.572;2022-09-09T05:17:18;2.40;;;1.48;;
16839;SDS011;8536;52.150;11.572;2022-09-09T05:19:45;2.38;;;1.25;;
16839;SDS011;8536;52.150;11.572;2022-09-09T05:22:11;2.03;;;1.30;;
16839;SDS011;8536;52.150;11.572;2022-09-09T05:24:38;2.05;;;1.35;;
16839;SDS011;8536;52.150;11.572;2022-09-09T05:27:04;1.98;;;1.58;;
16839;SDS011;8536;52.150;11.572;2022-09-09T05:29:32;5.57;;;1.40;;
16839;SDS011;8536;52.150;11.572;2022-09-09T05:31:59;2.15;;;1.63;;
16839;SDS011;8536;52.150;11.572;2022-09-09T05:34:26;2.00;;;1.50;;
16839;SDS011;8536;52.150;11.572;2022-09-09T05:36:53;1.38;;;1.27;;
16839;SDS011;8536;52.150;11.572;2022-09-09T05:39:19;3.00;;;1.52;;
16839;SDS011;8536;52.150;11.572;2022-09-09T05:41:46;4.40;;;1.38;;
16839;SDS011;8536;52.150;11.572;2022-09-09T05:44:12;1.88;;;1.20;;
16839;SDS011;8536;52.150;11.572;2022-09-09T05:46:39;4.78;;;1.73;;
16839;SDS011;8536;52.150;11.572;2022-09-09T05:49:06;1.38;;;1.27;;
16839;SDS011;8536;52.150;11.572;2022-09-09T05:51:32;2.75;;;1.52;;
16839;SDS011;8536;52.150;11.572;2022-09-09T05:53:58;2.47;;;1.40;;
16839;SDS011;8536;52.150;11.572;2022-09-09T05:56:26;3.78;;;1.80;;
16839;SDS011;8536;52.150;11.572;2022-09-09T05:58:54;1.77;;;1.38;;
16839;SDS011;8536;52.150;11.572;2022-09-09T06:01:22;3.17;;;1.45;;
16839;SDS011;8536;52.150;11.572;2022-09-09T06:03:50;5.00;;;1.40;;
16839;SDS011;8536;52.150;11.572;2022-09-09T06:06:18;2.85;;;1.90;;
16839;SDS011;8536;52.150;11.572;2022-09-09T06:08:51;1.65;;;1.10;;
16839;SDS011;8536;52.150;11.572;2022-09-09T06:11:20;2.72;;;1.30;;
16839;SDS011;8536;52.150;11.572;2022-09-09T06:13:48;2.35;;;1.40;;
16839;SDS011;8536;52.150;11.572;2022-09-09T06:16:17;4.22;;;1.60;;
16839;SDS011;8536;52.150;11.572;2022-09-09T06:18:44;1.67;;;1.40;;
16839;SDS011;8536;52.150;11.572;2022-09-09T06:21:14;2.50;;;1.20;;
16839;SDS011;8536;52.150;11.572;2022-09-09T06:23:41;3.47;;;1.10;;
16839;SDS011;8536;52.150;11.572;2022-09-09T06:26:12;2.28;;;1.25;;
16839;SDS011;8536;52.150;11.572;2022-09-09T06:28:40;1.92;;;1.30;;
16839;SDS011;8536;52.150;11.572;2022-09-09T06:31:10;3.65;;;1.10;;
16839;SDS011;8536;52.150;11.572;2022-09-09T06:33:38;2.70;;;1.27;;
16839;SDS011;8536;52.150;11.572;2022-09-09T06:36:11;4.15;;;1.42;;
16839;SDS011;8536;52.150;11.572;2022-09-09T06:38:38;2.83;;;1.40;;
16839;SDS011;8536;52.150;11.572;2022-09-09T06:41:05;5.40;;;1.60;;
16839;SDS011;8536;52.150;11.572;2022-09-09T06:43:31;3.42;;;1.23;;
16839;SDS011;8536;52.150;11.572;2022-09-09T06:45:59;1.83;;;1.10;;
16839;SDS011;8536;52.150;11.572;2022-09-09T06:48:26;3.60;;;1.40;;
16839;SDS011;8536;52.150;11.572;2022-09-09T06:51:01;2.90;;;1.08;;
16839;SDS011;8536;52.150;11.572;2022-09-09T06:53:28;2.70;;;1.17;;
16839;SDS011;8536;52.150;11.572;2022-09-09T06:55:56;4.47;;;1.40;;
16839;SDS011;8536;52.150;11.572;2022-09-09T06:58:22;4.63;;;1.25;;
16839;SDS011;8536;52.150;11.572;2022-09-09T07:00:48;2.55;;;1.25;;
16839;SDS011;8536;52.150;11.572;2022-09-09T07:03:15;2.17;;;1.35;;
16839;SDS011;8536;52.150;11.572;2022-09-09T07:05:42;1.15;;;1.05;;
16839;SDS011;8536;52.150;11.572;2022-09-09T07:08:10;1.17;;;1.08;;
16839;SDS011;8536;52.150;11.572;2022-09-09T07:10:36;2.47;;;1.13;;
16839;SDS011;8536;52.150;11.572;2022-09-09T07:13:03;3.63;;;1.30;;
16839;SDS011;8536;52.150;11.572;2022-09-09T07:15:30;2.35;;;1.30;;
16839;SDS011;8536;52.150;11.572;2022-09-09T07:18:02;3.78;;;1.23;;
16839;SDS011;8536;52.150;11.572;2022-09-09T07:20:29;1.38;;;1.00;;
16839;SDS011;8536;52.150;11.572;2022-09-09T07:22:55;1.88;;;1.10;;
16839;SDS011;8536;52.150;11.572;2022-09-09T07:25:22;2.70;;;1.20;;
16839;SDS011;8536;52.150;11.572;2022-09-09T07:27:49;1.38;;;1.25;;
16839;SDS011;8536;52.150;11.572;2022-09-09T07:30:15;1.02;;;0.88;;
16839;SDS011;8536;52.150;11.572;2022-09-09T07:32:51;3.53;;;1.48;;
16839;SDS011;8536;52.150;11.572;2022-09-09T07:35:18;3.33;;;1.10;;
16839;SDS011;8536;52.150;11.572;2022-09-09T07:37:44;4.80;;;1.05;;
16839;SDS011;8536;52.150;11.572;2022-09-09T07:40:16;2.58;;;0.80;;
16839;SDS011;8536;52.150;11.572;2022-09-09T07:42:42;2.50;;;0.95;;
16839;SDS011;8536;52.150;11.572;2022-09-09T07:45:09;1.35;;;0.90;;
16839;SDS011;8536;52.150;11.572;2022-09-09T07:47:35;2.75;;;1.10;;
16839;SDS011;8536;52.150;11.572;2022-09-09T07:50:01;1.77;;;1.10;;
16839;SDS011;8536;52.150;11.572;2022-09-09T07:52:28;2.08;;;1.00;;
16839;SDS011;8536;52.150;11.572;2022-09-09T07:54:54;1.83;;;1.02;;
16839;SDS011;8536;52.150;11.572;2022-09-09T07:57:22;2.08;;;0.98;;
16839;SDS011;8536;52.150;11.572;2022-09-09T07:59:49;2.55;;;0.77;;
16839;SDS011;8536;52.150;11.572;2022-09-09T08:02:16;5.15;;;1.33;;
16839;SDS011;8536;52.150;11.572;2022-09-09T08:04:43;5.10;;;1.10;;
16839;SDS011;8536;52.150;11.572;2022-09-09T08:07:09;4.25;;;1.10;;
16839;SDS011;8536;52.150;11.572;2022-09-09T08:09:36;3.83;;;1.08;;
16839;SDS011;8536;52.150;11.572;2022-09-09T08:12:03;1.48;;;0.80;;
16839;SDS011;8536;52.150;11.572;2022-09-09T08:14:29;0.93;;;0.65;;
16839;SDS011;8536;52.150;11.572;2022-09-09T08:16:56;2.90;;;0.88;;
16839;SDS011;8536;52.150;11.572;2022-09-09T08:19:23;2.65;;;0.93;;
16839;SDS011;8536;52.150;11.572;2022-09-09T08:21:49;1.55;;;0.70;;
16839;SDS011;8536;52.150;11.572;2022-09-09T08:24:16;2.78;;;0.90;;
16839;SDS011;8536;52.150;11.572;2022-09-09T08:26:43;3.38;;;0.90;;
16839;SDS011;8536;52.150;11.572;2022-09-09T08:29:11;1.45;;;0.80;;
16839;SDS011;8536;52.150;11.572;2022-09-09T08:31:40;3.70;;;0.95;;
16839;SDS011;8536;52.150;11.572;2022-09-09T08:34:09;1.83;;;0.82;;
16839;SDS011;8536;52.150;11.572;2022-09-09T08:36:36;2.72;;;0.80;;
16839;SDS011;8536;52.150;11.572;2022-09-09T08:39:04;1.90;;;0.90;;
16839;SDS011;8536;52.150;11.572;2022-09-09T08:52:50;2.00;;;0.80;;
16839;SDS011;8536;52.150;11.572;2022-09-09T08:58:12;4.53;;;0.95;;
16839;SDS011;8536;52.150;11.572;2022-09-09T09:09:14;1.85;;;0.70;;
16839;SDS011;8536;52.150;11.572;2022-09-09T09:11:51;2.50;;;0.88;;
16839;SDS011;8536;52.150;11.572;2022-09-09T09:19:48;1.80;;;0.90;;
16839;SDS011;8536;52.150;11.572;2022-09-09T09:22:19;3.03;;;0.90;;
16839;SDS011;8536;52.150;11.572;2022-09-09T09:24:55;2.00;;;0.80;;
16839;SDS011;8536;52.150;11.572;2022-09-09T09:27:33;2.60;;;0.80;;
16839;SDS011;8536;52.150;11.572;2022-09-09T09:30:01;0.95;;;0.73;;
16839;SDS011;8536;52.150;11.572;2022-09-09T09:32:57;2.83;;;0.80;;
16839;SDS011;8536;52.150;11.572;2022-09-09T09:35:25;1.48;;;0.70;;
16839;SDS011;8536;52.150;11.572;2022-09-09T09:37:52;3.38;;;1.25;;
16839;SDS011;8536;52.150;11.572;2022-09-09T09:40:47;1.63;;;0.80;;
16839;SDS011;8536;52.150;11.572;2022-09-09T09:43:18;3.55;;;1.05;;
16839;SDS011;8536;52.150;11.572;2022-09-09T09:45:46;3.40;;;0.90;;
16839;SDS011;8536;52.150;11.572;2022-09-09T09:48:34;3.38;;;0.90;;
16839;SDS011;8536;52.150;11.572;2022-09-09T09:51:01;4.35;;;0.98;;
16839;SDS011;8536;52.150;11.572;2022-09-09T09:53:33;3.42;;;1.05;;
16839;SDS011;8536;52.150;11.572;2022-09-09T09:56:01;3.15;;;0.80;;
16839;SDS011;8536;52.150;11.572;2022-09-09T09:58:30;4.25;;;1.00;;
16839;SDS011;8536;52.150;11.572;2022-09-09T10:01:00;2.17;;;0.80;;
16839;SDS011;8536;52.150;11.572;2022-09-09T10:03:28;4.75;;;1.10;;
16839;SDS011;8536;52.150;11.572;2022-09-09T10:05:56;2.85;;;0.80;;
16839;SDS011;8536;52.150;11.572;2022-09-09T10:08:27;2.88;;;0.75;;
16839;SDS011;8536;52.150;11.572;2022-09-09T10:13:36;3.58;;;0.85;;
16839;SDS011;8536;52.150;11.572;2022-09-09T10:16:13;2.30;;;0.90;;
16839;SDS011;8536;52.150;11.572;2022-09-09T10:24:23;4.47;;;0.80;;
16839;SDS011;8536;52.150;11.572;2022-09-09T10:27:05;2.72;;;0.80;;
16839;SDS011;8536;52.150;11.572;2022-09-09T10:35:43;2.65;;;1.10;;
16839;SDS011;8536;52.150;11.572;2022-09-09T10:41:11;3.75;;;0.85;;
16839;SDS011;8536;52.150;11.572;2022-09-09T10:44:05;5.50;;;1.00;;
16839;SDS011;8536;52.150;11.572;2022-09-09T10:46:51;4.40;;;1.00;;
16839;SDS011;8536;52.150;11.572;2022-09-09T10:55:00;3.60;;;0.90;;
16839;SDS011;8536;52.150;11.572;2022-09-09T10:57:35;1.98;;;0.77;;
16839;SDS011;8536;52.150;11.572;2022-09-09T11:00:04;1.63;;;1.10;;
16839;SDS011;8536;52.150;11.572;2022-09-09T11:02:33;3.72;;;0.90;;
16839;SDS011;8536;52.150;11.572;2022-09-09T11:05:04;1.23;;;0.65;;
16839;SDS011;8536;52.150;11.572;2022-09-09T11:07:37;2.65;;;1.25;;
16839;SDS011;8536;52.150;11.572;2022-09-09T11:10:13;2.60;;;0.85;;
16839;SDS011;8536;52.150;11.572;2022-09-09T11:12:44;1.40;;;0.70;;
16839;SDS011;8536;52.150;11.572;2022-09-09T11:15:22;2.30;;;0.90;;
16839;SDS011;8536;52.150;11.572;2022-09-09T11:17:58;1.73;;;0.80;;
16839;SDS011;8536;52.150;11.572;2022-09-09T11:20:27;2.10;;;0.93;;
16839;SDS011;8536;52.150;11.572;2022-09-09T11:22:56;1.35;;;0.70;;
16839;SDS011;8536;52.150;11.572;2022-09-09T11:25:27;1.90;;;0.85;;
16839;SDS011;8536;52.150;11.572;2022-09-09T11:36:53;2.60;;;0.90;;
16839;SDS011;8536;52.150;11.572;2022-09-09T11:39:44;1.45;;;0.60;;
16839;SDS011;8536;52.150;11.572;2022-09-09T11:42:33;1.73;;;0.65;;
16839;SDS011;8536;52.150;11.572;2022-09-09T11:47:57;1.98;;;0.73;;
16839;SDS011;8536;52.150;11.572;2022-09-09T11:52:50;2.67;;;0.80;;
16839;SDS011;8536;52.150;11.572;2022-09-09T11:55:26;2.70;;;1.33;;
16839;SDS011;8536;52.150;11.572;2022-09-09T11:57:58;2.35;;;0.90;;
16839;SDS011;8536;52.150;11.572;2022-09-09T12:00:38;2.22;;;0.90;;
16839;SDS011;8536;52.150;11.572;2022-09-09T12:03:08;2.55;;;0.82;;
16839;SDS011;8536;52.150;11.572;2022-09-09T12:06:00;2.00;;;0.80;;
16839;SDS011;8536;52.150;11.572;2022-09-09T12:08:35;2.28;;;1.00;;
16839;SDS011;8536;52.150;11.572;2022-09-09T12:11:03;2.83;;;0.90;;
16839;SDS011;8536;52.150;11.572;2022-09-09T12:13:30;4.95;;;0.80;;
16839;SDS011;8536;52.150;11.572;2022-09-09T12:15:58;1.95;;;0.70;;
16839;SDS011;8536;52.150;11.572;2022-09-09T12:18:31;2.13;;;0.80;;
16839;SDS011;8536;52.150;11.572;2022-09-09T12:21:24;2.97;;;1.00;;
16839;SDS011;8536;52.150;11.572;2022-09-09T12:23:57;2.00;;;0.82;;
16839;SDS011;8536;52.150;11.572;2022-09-09T12:26:28;3.20;;;0.95;;
16839;SDS011;8536;52.150;11.572;2022-09-09T12:29:01;2.42;;;0.85;;
16839;SDS011;8536;52.150;11.572;2022-09-09T12:34:38;1.23;;;0.80;;
16839;SDS011;8536;52.150;11.572;2022-09-09T12:39:47;1.30;;;0.70;;
16839;SDS011;8536;52.150;11.572;2022-09-09T12:42:20;1.50;;;0.82;;
16839;SDS011;8536;52.150;11.572;2022-09-09T12:44:51;3.13;;;1.08;;
16839;SDS011;8536;52.150;11.572;2022-09-09T12:50:15;2.03;;;0.70;;
16839;SDS011;8536;52.150;11.572;2022-09-09T12:52:45;3.97;;;1.00;;
16839;SDS011;8536;52.150;11.572;2022-09-09T12:55:18;3.20;;;0.98;;
16839;SDS011;8536;52.150;11.572;2022-09-09T12:57:47;2.15;;;0.80;;
16839;SDS011;8536;52.150;11.572;2022-09-09T13:00:17;3.35;;;1.00;;
16839;SDS011;8536;52.150;11.572;2022-09-09T13:02:47;2.85;;;0.90;;
16839;SDS011;8536;52.150;11.572;2022-09-09T13:05:19;2.13;;;0.90;;
16839;SDS011;8536;52.150;11.572;2022-09-09T13:07:50;2.67;;;1.10;;
16839;SDS011;8536;52.150;11.572;2022-09-09T13:10:21;3.08;;;0.90;;
16839;SDS011;8536;52.150;11.572;2022-09-09T13:13:01;3.15;;;0.88;;
16839;SDS011;8536;52.150;11.572;2022-09-09T13:15:29;2.25;;;0.60;;
16839;SDS011;8536;52.150;11.572;2022-09-09T13:17:57;2.55;;;0.88;;
16839;SDS011;8536;52.150;11.572;2022-09-09T13:20:26;2.85;;;0.80;;
16839;SDS011;8536;52.150;11.572;2022-09-09T13:22:54;3.30;;;0.82;;
16839;SDS011;8536;52.150;11.572;2022-09-09T13:25:22;1.42;;;0.77;;
16839;SDS011;8536;52.150;11.572;2022-09-09T13:27:58;1.30;;;0.60;;
16839;SDS011;8536;52.150;11.572;2022-09-09T13:30:28;1.63;;;0.85;;
16839;SDS011;8536;52.150;11.572;2022-09-09T13:38:14;3.13;;;0.82;;
16839;SDS011;8536;52.150;11.572;2022-09-09T13:40:54;3.42;;;1.00;;
16839;SDS011;8536;52.150;11.572;2022-09-09T13:43:24;5.10;;;1.10;;
16839;SDS011;8536;52.150;11.572;2022-09-09T13:45:55;6.53;;;1.38;;
16839;SDS011;8536;52.150;11.572;2022-09-09T13:48:24;2.88;;;0.80;;
16839;SDS011;8536;52.150;11.572;2022-09-09T13:50:56;4.88;;;1.17;;
16839;SDS011;8536;52.150;11.572;2022-09-09T13:53:27;4.22;;;1.00;;
16839;SDS011;8536;52.150;11.572;2022-09-09T13:55:53;2.85;;;0.88;;
16839;SDS011;8536;52.150;11.572;2022-09-09T13:58:20;1.85;;;0.88;;
16839;SDS011;8536;52.150;11.572;2022-09-09T14:00:47;2.97;;;0.95;;
16839;SDS011;8536;52.150;11.572;2022-09-09T14:03:14;3.40;;;1.02;;
16839;SDS011;8536;52.150;11.572;2022-09-09T14:05:40;3.10;;;0.75;;
16839;SDS011;8536;52.150;11.572;2022-09-09T14:08:10;3.78;;;0.77;;
16839;SDS011;8536;52.150;11.572;2022-09-09T14:10:42;1.77;;;0.80;;
16839;SDS011;8536;52.150;11.572;2022-09-09T14:13:09;2.65;;;0.90;;
16839;SDS011;8536;52.150;11.572;2022-09-09T14:15:35;1.85;;;0.68;;
16839;SDS011;8536;52.150;11.572;2022-09-09T14:18:02;2.08;;;0.80;;
16839;SDS011;8536;52.150;11.572;2022-09-09T14:20:28;2.13;;;0.88;;
16839;SDS011;8536;52.150;11.572;2022-09-09T14:22:54;2.70;;;0.95;;
16839;SDS011;8536;52.150;11.572;2022-09-09T14:25:28;2.20;;;0.82;;
16839;SDS011;8536;52.150;11.572;2022-09-09T14:27:55;2.65;;;0.63;;
16839;SDS011;8536;52.150;11.572;2022-09-09T14:30:22;1.90;;;0.80;;
16839;SDS011;8536;52.150;11.572;2022-09-09T14:32:48;2.45;;;0.73;;
16839;SDS011;8536;52.150;11.572;2022-09-09T14:35:15;2.55;;;0.77;;
16839;SDS011;8536;52.150;11.572;2022-09-09T14:37:43;1.10;;;0.60;;
16839;SDS011;8536;52.150;11.572;2022-09-09T14:40:10;1.25;;;0.70;;
16839;SDS011;8536;52.150;11.572;2022-09-09T14:42:37;2.10;;;0.70;;
16839;SDS011;8536;52.150;11.572;2022-09-09T14:45:04;2.50;;;1.17;;
16839;SDS011;8536;52.150;11.572;2022-09-09T14:47:30;1.42;;;0.73;;
16839;SDS011;8536;52.150;11.572;2022-09-09T14:49:57;3.97;;;1.10;;
16839;SDS011;8536;52.150;11.572;2022-09-09T14:52:23;3.63;;;1.20;;
16839;SDS011;8536;52.150;11.572;2022-09-09T14:54:51;1.65;;;0.60;;
16839;SDS011;8536;52.150;11.572;2022-09-09T14:57:17;2.45;;;0.63;;
16839;SDS011;8536;52.150;11.572;2022-09-09T14:59:44;1.02;;;0.68;;
16839;SDS011;8536;52.150;11.572;2022-09-09T15:02:10;4.75;;;0.90;;
16839;SDS011;8536;52.150;11.572;2022-09-09T15:04:40;1.73;;;0.80;;
16839;SDS011;8536;52.150;11.572;2022-09-09T15:07:06;2.53;;;0.85;;
16839;SDS011;8536;52.150;11.572;2022-09-09T15:09:32;1.60;;;0.57;;
16839;SDS011;8536;52.150;11.572;2022-09-09T15:11:59;2.85;;;0.80;;
16839;SDS011;8536;52.150;11.572;2022-09-09T15:14:26;2.42;;;0.80;;
16839;SDS011;8536;52.150;11.572;2022-09-09T15:16:53;1.10;;;0.50;;
16839;SDS011;8536;52.150;11.572;2022-09-09T15:19:19;1.55;;;0.60;;
16839;SDS011;8536;52.150;11.572;2022-09-09T15:21:46;0.80;;;0.50;;
16839;SDS011;8536;52.150;11.572;2022-09-09T15:24:13;0.73;;;0.60;;
16839;SDS011;8536;52.150;11.572;2022-09-09T15:26:39;0.98;;;0.52;;
16839;SDS011;8536;52.150;11.572;2022-09-09T15:29:06;1.70;;;0.80;;
16839;SDS011;8536;52.150;11.572;2022-09-09T15:31:34;1.30;;;0.50;;
16839;SDS011;8536;52.150;11.572;2022-09-09T15:34:01;1.40;;;0.70;;
16839;SDS011;8536;52.150;11.572;2022-09-09T15:36:38;1.35;;;0.70;;
16839;SDS011;8536;52.150;11.572;2022-09-09T15:39:07;0.98;;;0.52;;
16839;SDS011;8536;52.150;11.572;2022-09-09T15:41:35;1.23;;;0.70;;
16839;SDS011;8536;52.150;11.572;2022-09-09T15:44:02;1.60;;;0.90;;
16839;SDS011;8536;52.150;11.572;2022-09-09T15:46:30;1.77;;;0.60;;
16839;SDS011;8536;52.150;11.572;2022-09-09T15:49:03;0.65;;;0.50;;
16839;SDS011;8536;52.150;11.572;2022-09-09T15:51:35;1.00;;;0.50;;
16839;SDS011;8536;52.150;11.572;2022-09-09T15:54:10;1.33;;;0.50;;
16839;SDS011;8536;52.150;11.572;2022-09-09T15:56:38;1.08;;;0.70;;
16839;SDS011;8536;52.150;11.572;2022-09-09T15:59:04;2.00;;;0.82;;
16839;SDS011;8536;52.150;11.572;2022-09-09T16:01:31;2.10;;;0.60;;
16839;SDS011;8536;52.150;11.572;2022-09-09T16:03:58;0.90;;;0.55;;
16839;SDS011;8536;52.150;11.572;2022-09-09T16:06:26;1.13;;;0.47;;
16839;SDS011;8536;52.150;11.572;2022-09-09T16:08:54;1.02;;;0.52;;
16839;SDS011;8536;52.150;11.572;2022-09-09T16:11:23;1.70;;;0.73;;
16839;SDS011;8536;52.150;11.572;2022-09-09T16:13:52;1.67;;;0.52;;
16839;SDS011;8536;52.150;11.572;2022-09-09T16:16:20;2.70;;;0.80;;
16839;SDS011;8536;52.150;11.572;2022-09-09T16:18:49;2.92;;;0.85;;
16839;SDS011;8536;52.150;11.572;2022-09-09T16:21:22;1.70;;;0.82;;
16839;SDS011;8536;52.150;11.572;2022-09-09T16:23:52;1.40;;;1.00;;
16839;SDS011;8536;52.150;11.572;2022-09-09T16:26:22;2.28;;;0.63;;
16839;SDS011;8536;52.150;11.572;2022-09-09T16:28:49;2.90;;;0.80;;
16839;SDS011;8536;52.150;11.572;2022-09-09T16:31:16;1.45;;;0.70;;
16839;SDS011;8536;52.150;11.572;2022-09-09T16:33:44;0.90;;;0.73;;
16839;SDS011;8536;52.150;11.572;2022-09-09T16:36:12;2.78;;;0.80;;
16839;SDS011;8536;52.150;11.572;2022-09-09T16:38:40;0.88;;;0.60;;
16839;SDS011;8536;52.150;11.572;2022-09-09T16:41:08;2.22;;;0.88;;
16839;SDS011;8536;52.150;11.572;2022-09-09T16:43:35;1.67;;;0.75;;
16839;SDS011;8536;52.150;11.572;2022-09-09T16:46:03;1.55;;;0.80;;
16839;SDS011;8536;52.150;11.572;2022-09-09T16:48:31;0.98;;;0.60;;
16839;SDS011;8536;52.150;11.572;2022-09-09T16:51:06;0.98;;;0.70;;
16839;SDS011;8536;52.150;11.572;2022-09-09T16:53:34;1.60;;;0.65;;
16839;SDS011;8536;52.150;11.572;2022-09-09T16:56:07;2.05;;;0.77;;